sensor_id;sensor_type;location;lat;lon;timestamp;P1;durP1;ratioP1;P2;durP2;ratioP2
8683;SDS011;4379;59.744;18.206;2024-03-02T00:00:24;28.80;;;18.10;;
8683;SDS011;4379;59.744;18.206;2024-03-02T00:02:51;28.03;;;19.00;;
8683;SDS011;4379;59.744;18.206;2024-03-02T00:05:19;21.27;;;16.90;;
8683;SDS011;4379;59.744;18.206;2024-03-02T00:07:52;29.87;;;19.23;;
8683;SDS011;4379;59.744;18.206;2024-03-02T00:10:20;27.63;;;18.47;;
8683;SDS011;4379;59.744;18.206;2024-03-02T00:13:03;25.50;;;17.50;;
8683;SDS011;4379;59.744;18.206;2024-03-02T00:15:41;28.20;;;18.70;;
8683;SDS011;4379;59.744;18.206;2024-03-02T00:18:18;25.73;;;18.63;;
8683;SDS011;4379;59.744;18.206;2024-03-02T00:20:46;26.70;;;18.13;;
8683;SDS011;4379;59.744;18.206;2024-03-02T00:23:14;29.27;;;19.13;;
8683;SDS011;4379;59.744;18.206;2024-03-02T00:25:52;26.60;;;18.60;;
8683;SDS011;4379;59.744;18.206;2024-03-02T00:33:32;33.63;;;20.83;;
8683;SDS011;4379;59.744;18.206;2024-03-02T00:36:05;24.67;;;18.87;;
8683;SDS011;4379;59.744;18.206;2024-03-02T00:38:34;29.97;;;18.73;;
8683;SDS011;4379;59.744;18.206;2024-03-02T00:41:06;27.10;;;19.13;;
8683;SDS011;4379;59.744;18.206;2024-03-02T00:43:38;22.43;;;17.90;;
8683;SDS011;4379;59.744;18.206;2024-03-02T00:46:18;28.43;;;19.10;;
8683;SDS011;4379;59.744;18.206;2024-03-02T00:48:53;28.27;;;19.97;;
8683;SDS011;4379;59.744;18.206;2024-03-02T00:51:23;27.93;;;19.83;;
8683;SDS011;4379;59.744;18.206;2024-03-02T00:53:52;29.53;;;19.73;;
8683;SDS011;4379;59.744;18.206;2024-03-02T00:56:23;29.70;;;20.03;;
8683;SDS011;4379;59.744;18.206;2024-03-02T00:58:51;25.83;;;18.73;;
8683;SDS011;4379;59.744;18.206;2024-03-02T01:01:19;24.13;;;18.70;;
8683;SDS011;4379;59.744;18.206;2024-03-02T01:03:46;26.30;;;18.77;;
8683;SDS011;4379;59.744;18.206;2024-03-02T01:06:14;28.97;;;19.77;;
8683;SDS011;4379;59.744;18.206;2024-03-02T01:08:42;25.47;;;20.33;;
8683;SDS011;4379;59.744;18.206;2024-03-02T01:11:09;34.73;;;21.43;;
8683;SDS011;4379;59.744;18.206;2024-03-02T01:13:36;30.10;;;21.57;;
8683;SDS011;4379;59.744;18.206;2024-03-02T01:16:03;33.07;;;21.77;;
8683;SDS011;4379;59.744;18.206;2024-03-02T01:18:31;32.63;;;20.77;;
8683;SDS011;4379;59.744;18.206;2024-03-02T01:20:58;28.53;;;19.47;;
8683;SDS011;4379;59.744;18.206;2024-03-02T01:23:25;29.87;;;20.60;;
8683;SDS011;4379;59.744;18.206;2024-03-02T01:25:52;26.60;;;19.97;;
8683;SDS011;4379;59.744;18.206;2024-03-02T01:28:19;24.73;;;19.10;;
8683;SDS011;4379;59.744;18.206;2024-03-02T01:30:47;27.33;;;19.13;;
8683;SDS011;4379;59.744;18.206;2024-03-02T01:33:16;28.83;;;19.30;;
8683;SDS011;4379;59.744;18.206;2024-03-02T01:35:44;21.13;;;17.57;;
8683;SDS011;4379;59.744;18.206;2024-03-02T01:38:11;23.43;;;17.60;;
8683;SDS011;4379;59.744;18.206;2024-03-02T01:40:38;29.57;;;21.80;;
8683;SDS011;4379;59.744;18.206;2024-03-02T01:43:06;31.37;;;20.57;;
8683;SDS011;4379;59.744;18.206;2024-03-02T01:45:34;32.30;;;21.63;;
8683;SDS011;4379;59.744;18.206;2024-03-02T01:48:04;32.27;;;21.80;;
8683;SDS011;4379;59.744;18.206;2024-03-02T01:50:33;28.50;;;21.87;;
8683;SDS011;4379;59.744;18.206;2024-03-02T01:53:01;39.30;;;23.03;;
8683;SDS011;4379;59.744;18.206;2024-03-02T01:55:29;35.40;;;23.50;;
8683;SDS011;4379;59.744;18.206;2024-03-02T01:57:57;28.60;;;22.43;;
8683;SDS011;4379;59.744;18.206;2024-03-02T02:00:25;32.03;;;22.33;;
8683;SDS011;4379;59.744;18.206;2024-03-02T02:02:53;32.20;;;23.00;;
8683;SDS011;4379;59.744;18.206;2024-03-02T02:05:21;31.30;;;20.97;;
8683;SDS011;4379;59.744;18.206;2024-03-02T02:07:49;34.60;;;21.47;;
8683;SDS011;4379;59.744;18.206;2024-03-02T02:10:16;34.40;;;22.93;;
8683;SDS011;4379;59.744;18.206;2024-03-02T02:12:43;37.47;;;23.97;;
8683;SDS011;4379;59.744;18.206;2024-03-02T02:15:23;32.33;;;22.57;;
8683;SDS011;4379;59.744;18.206;2024-03-02T02:17:52;30.63;;;21.87;;
8683;SDS011;4379;59.744;18.206;2024-03-02T02:20:19;32.47;;;23.70;;
8683;SDS011;4379;59.744;18.206;2024-03-02T02:22:59;31.27;;;22.97;;
8683;SDS011;4379;59.744;18.206;2024-03-02T02:25:31;32.50;;;22.53;;
8683;SDS011;4379;59.744;18.206;2024-03-02T02:27:58;33.90;;;24.30;;
8683;SDS011;4379;59.744;18.206;2024-03-02T02:30:29;39.60;;;25.73;;
8683;SDS011;4379;59.744;18.206;2024-03-02T02:32:58;37.47;;;23.07;;
8683;SDS011;4379;59.744;18.206;2024-03-02T02:35:25;33.37;;;21.80;;
8683;SDS011;4379;59.744;18.206;2024-03-02T02:37:54;36.63;;;23.33;;
8683;SDS011;4379;59.744;18.206;2024-03-02T02:40:22;37.63;;;22.97;;
8683;SDS011;4379;59.744;18.206;2024-03-02T02:42:49;34.33;;;22.17;;
8683;SDS011;4379;59.744;18.206;2024-03-02T02:45:19;33.33;;;21.63;;
8683;SDS011;4379;59.744;18.206;2024-03-02T02:47:47;27.03;;;21.23;;
8683;SDS011;4379;59.744;18.206;2024-03-02T02:50:14;32.50;;;21.83;;
8683;SDS011;4379;59.744;18.206;2024-03-02T02:52:41;33.20;;;22.13;;
8683;SDS011;4379;59.744;18.206;2024-03-02T02:55:10;39.10;;;23.70;;
8683;SDS011;4379;59.744;18.206;2024-03-02T02:57:41;35.20;;;23.07;;
8683;SDS011;4379;59.744;18.206;2024-03-02T03:00:13;43.10;;;24.63;;
8683;SDS011;4379;59.744;18.206;2024-03-02T03:02:44;43.00;;;25.33;;
8683;SDS011;4379;59.744;18.206;2024-03-02T03:05:14;38.97;;;24.50;;
8683;SDS011;4379;59.744;18.206;2024-03-02T03:07:41;37.97;;;24.20;;
8683;SDS011;4379;59.744;18.206;2024-03-02T03:10:11;46.03;;;25.27;;
8683;SDS011;4379;59.744;18.206;2024-03-02T03:12:40;40.23;;;24.83;;
8683;SDS011;4379;59.744;18.206;2024-03-02T03:15:09;46.07;;;25.60;;
8683;SDS011;4379;59.744;18.206;2024-03-02T03:17:37;42.57;;;26.47;;
8683;SDS011;4379;59.744;18.206;2024-03-02T03:20:05;37.03;;;24.93;;
8683;SDS011;4379;59.744;18.206;2024-03-02T03:22:36;40.93;;;27.13;;
8683;SDS011;4379;59.744;18.206;2024-03-02T03:25:06;42.07;;;24.90;;
8683;SDS011;4379;59.744;18.206;2024-03-02T03:27:35;43.77;;;26.23;;
8683;SDS011;4379;59.744;18.206;2024-03-02T03:30:02;43.73;;;26.03;;
8683;SDS011;4379;59.744;18.206;2024-03-02T03:32:30;47.63;;;26.50;;
8683;SDS011;4379;59.744;18.206;2024-03-02T03:34:57;47.90;;;26.90;;
8683;SDS011;4379;59.744;18.206;2024-03-02T03:37:24;43.10;;;24.30;;
8683;SDS011;4379;59.744;18.206;2024-03-02T03:39:53;47.13;;;26.37;;
8683;SDS011;4379;59.744;18.206;2024-03-02T03:42:20;42.93;;;24.87;;
8683;SDS011;4379;59.744;18.206;2024-03-02T03:44:47;45.33;;;25.37;;
8683;SDS011;4379;59.744;18.206;2024-03-02T03:47:14;48.93;;;27.80;;
8683;SDS011;4379;59.744;18.206;2024-03-02T03:49:41;44.17;;;25.17;;
8683;SDS011;4379;59.744;18.206;2024-03-02T03:52:08;35.37;;;23.77;;
8683;SDS011;4379;59.744;18.206;2024-03-02T03:54:35;49.23;;;26.37;;
8683;SDS011;4379;59.744;18.206;2024-03-02T03:57:04;49.07;;;24.77;;
8683;SDS011;4379;59.744;18.206;2024-03-02T03:59:32;42.17;;;25.77;;
8683;SDS011;4379;59.744;18.206;2024-03-02T04:01:59;43.27;;;25.80;;
8683;SDS011;4379;59.744;18.206;2024-03-02T04:04:26;40.73;;;24.60;;
8683;SDS011;4379;59.744;18.206;2024-03-02T04:06:53;41.80;;;24.50;;
8683;SDS011;4379;59.744;18.206;2024-03-02T04:09:21;45.93;;;25.23;;
8683;SDS011;4379;59.744;18.206;2024-03-02T04:11:48;37.97;;;23.30;;
8683;SDS011;4379;59.744;18.206;2024-03-02T04:14:15;38.83;;;23.67;;
8683;SDS011;4379;59.744;18.206;2024-03-02T04:16:42;41.27;;;26.07;;
8683;SDS011;4379;59.744;18.206;2024-03-02T04:19:09;41.83;;;26.00;;
8683;SDS011;4379;59.744;18.206;2024-03-02T04:21:36;47.43;;;26.03;;
8683;SDS011;4379;59.744;18.206;2024-03-02T04:24:03;49.97;;;25.13;;
8683;SDS011;4379;59.744;18.206;2024-03-02T04:26:31;36.77;;;23.57;;
8683;SDS011;4379;59.744;18.206;2024-03-02T04:28:59;39.63;;;24.27;;
8683;SDS011;4379;59.744;18.206;2024-03-02T04:31:26;50.20;;;28.17;;
8683;SDS011;4379;59.744;18.206;2024-03-02T04:33:53;44.30;;;26.90;;
8683;SDS011;4379;59.744;18.206;2024-03-02T04:36:20;51.40;;;29.17;;
8683;SDS011;4379;59.744;18.206;2024-03-02T04:38:48;47.43;;;27.77;;
8683;SDS011;4379;59.744;18.206;2024-03-02T04:41:15;45.87;;;28.50;;
8683;SDS011;4379;59.744;18.206;2024-03-02T04:43:42;50.70;;;29.03;;
8683;SDS011;4379;59.744;18.206;2024-03-02T04:46:09;50.70;;;27.67;;
8683;SDS011;4379;59.744;18.206;2024-03-02T04:48:36;51.47;;;27.70;;
8683;SDS011;4379;59.744;18.206;2024-03-02T04:51:03;46.57;;;27.00;;
8683;SDS011;4379;59.744;18.206;2024-03-02T04:53:30;42.00;;;26.93;;
8683;SDS011;4379;59.744;18.206;2024-03-02T04:55:57;50.97;;;28.87;;
8683;SDS011;4379;59.744;18.206;2024-03-02T04:58:42;44.87;;;26.47;;
8683;SDS011;4379;59.744;18.206;2024-03-02T05:01:09;39.67;;;25.03;;
8683;SDS011;4379;59.744;18.206;2024-03-02T05:03:37;46.20;;;26.30;;
8683;SDS011;4379;59.744;18.206;2024-03-02T05:06:04;43.77;;;25.77;;
8683;SDS011;4379;59.744;18.206;2024-03-02T05:08:33;43.70;;;25.50;;
8683;SDS011;4379;59.744;18.206;2024-03-02T05:11:00;43.90;;;24.57;;
8683;SDS011;4379;59.744;18.206;2024-03-02T05:13:48;40.47;;;24.50;;
8683;SDS011;4379;59.744;18.206;2024-03-02T05:16:15;44.20;;;24.73;;
8683;SDS011;4379;59.744;18.206;2024-03-02T05:18:42;41.70;;;24.57;;
8683;SDS011;4379;59.744;18.206;2024-03-02T05:21:09;41.43;;;24.07;;
8683;SDS011;4379;59.744;18.206;2024-03-02T05:23:38;41.03;;;24.33;;
8683;SDS011;4379;59.744;18.206;2024-03-02T05:26:05;37.37;;;23.47;;
8683;SDS011;4379;59.744;18.206;2024-03-02T05:28:32;40.87;;;24.80;;
8683;SDS011;4379;59.744;18.206;2024-03-02T05:31:02;35.70;;;22.80;;
8683;SDS011;4379;59.744;18.206;2024-03-02T05:33:29;35.77;;;22.37;;
8683;SDS011;4379;59.744;18.206;2024-03-02T05:35:59;35.87;;;22.73;;
8683;SDS011;4379;59.744;18.206;2024-03-02T05:38:28;34.13;;;21.23;;
8683;SDS011;4379;59.744;18.206;2024-03-02T05:40:55;41.30;;;25.07;;
8683;SDS011;4379;59.744;18.206;2024-03-02T05:43:22;39.07;;;23.63;;
8683;SDS011;4379;59.744;18.206;2024-03-02T05:45:49;36.93;;;23.93;;
8683;SDS011;4379;59.744;18.206;2024-03-02T05:48:16;36.67;;;23.87;;
8683;SDS011;4379;59.744;18.206;2024-03-02T05:50:43;36.87;;;23.03;;
8683;SDS011;4379;59.744;18.206;2024-03-02T05:53:10;38.17;;;23.13;;
8683;SDS011;4379;59.744;18.206;2024-03-02T05:55:37;43.33;;;22.73;;
8683;SDS011;4379;59.744;18.206;2024-03-02T05:58:04;34.23;;;22.50;;
8683;SDS011;4379;59.744;18.206;2024-03-02T06:00:49;36.80;;;23.07;;
8683;SDS011;4379;59.744;18.206;2024-03-02T06:03:16;38.67;;;22.83;;
8683;SDS011;4379;59.744;18.206;2024-03-02T06:05:44;42.17;;;24.60;;
8683;SDS011;4379;59.744;18.206;2024-03-02T06:08:11;35.53;;;22.30;;
8683;SDS011;4379;59.744;18.206;2024-03-02T06:10:38;26.47;;;19.13;;
8683;SDS011;4379;59.744;18.206;2024-03-02T06:13:05;33.70;;;20.20;;
8683;SDS011;4379;59.744;18.206;2024-03-02T06:15:32;37.20;;;22.07;;
8683;SDS011;4379;59.744;18.206;2024-03-02T06:18:01;35.40;;;21.13;;
8683;SDS011;4379;59.744;18.206;2024-03-02T06:20:28;27.80;;;20.10;;
8683;SDS011;4379;59.744;18.206;2024-03-02T06:23:01;28.17;;;19.47;;
8683;SDS011;4379;59.744;18.206;2024-03-02T06:25:28;31.10;;;19.87;;
8683;SDS011;4379;59.744;18.206;2024-03-02T06:27:56;34.73;;;20.63;;
8683;SDS011;4379;59.744;18.206;2024-03-02T06:30:23;31.97;;;19.27;;
8683;SDS011;4379;59.744;18.206;2024-03-02T06:32:50;28.03;;;19.20;;
8683;SDS011;4379;59.744;18.206;2024-03-02T06:35:17;35.53;;;22.03;;
8683;SDS011;4379;59.744;18.206;2024-03-02T06:37:44;29.67;;;18.83;;
8683;SDS011;4379;59.744;18.206;2024-03-02T06:40:11;28.73;;;18.60;;
8683;SDS011;4379;59.744;18.206;2024-03-02T06:42:38;28.97;;;18.97;;
8683;SDS011;4379;59.744;18.206;2024-03-02T06:45:06;33.37;;;21.37;;
8683;SDS011;4379;59.744;18.206;2024-03-02T06:47:33;27.77;;;20.53;;
8683;SDS011;4379;59.744;18.206;2024-03-02T06:50:00;32.70;;;19.73;;
8683;SDS011;4379;59.744;18.206;2024-03-02T06:52:27;30.13;;;19.73;;
8683;SDS011;4379;59.744;18.206;2024-03-02T06:54:54;26.97;;;19.27;;
8683;SDS011;4379;59.744;18.206;2024-03-02T06:57:21;32.43;;;19.17;;
8683;SDS011;4379;59.744;18.206;2024-03-02T06:59:48;32.00;;;20.97;;
8683;SDS011;4379;59.744;18.206;2024-03-02T07:02:17;32.67;;;20.03;;
8683;SDS011;4379;59.744;18.206;2024-03-02T07:04:44;25.67;;;18.13;;
8683;SDS011;4379;59.744;18.206;2024-03-02T07:07:12;26.00;;;18.20;;
8683;SDS011;4379;59.744;18.206;2024-03-02T07:09:39;27.83;;;18.70;;
8683;SDS011;4379;59.744;18.206;2024-03-02T07:12:06;26.47;;;18.60;;
8683;SDS011;4379;59.744;18.206;2024-03-02T07:14:34;27.00;;;18.10;;
8683;SDS011;4379;59.744;18.206;2024-03-02T07:17:20;26.87;;;18.47;;
8683;SDS011;4379;59.744;18.206;2024-03-02T07:19:47;22.17;;;17.03;;
8683;SDS011;4379;59.744;18.206;2024-03-02T07:22:14;25.10;;;16.63;;
8683;SDS011;4379;59.744;18.206;2024-03-02T07:24:41;22.60;;;16.50;;
8683;SDS011;4379;59.744;18.206;2024-03-02T07:27:09;24.83;;;16.53;;
8683;SDS011;4379;59.744;18.206;2024-03-02T07:29:36;20.23;;;15.20;;
8683;SDS011;4379;59.744;18.206;2024-03-02T07:32:04;20.33;;;15.10;;
8683;SDS011;4379;59.744;18.206;2024-03-02T07:34:31;17.70;;;14.93;;
8683;SDS011;4379;59.744;18.206;2024-03-02T07:36:58;20.87;;;14.97;;
8683;SDS011;4379;59.744;18.206;2024-03-02T07:39:26;17.70;;;14.83;;
8683;SDS011;4379;59.744;18.206;2024-03-02T07:41:53;21.47;;;14.53;;
8683;SDS011;4379;59.744;18.206;2024-03-02T07:44:20;19.67;;;14.47;;
8683;SDS011;4379;59.744;18.206;2024-03-02T07:46:48;18.03;;;13.77;;
8683;SDS011;4379;59.744;18.206;2024-03-02T07:49:18;15.43;;;13.67;;
8683;SDS011;4379;59.744;18.206;2024-03-02T07:51:46;17.40;;;12.90;;
8683;SDS011;4379;59.744;18.206;2024-03-02T07:54:13;15.80;;;13.67;;
8683;SDS011;4379;59.744;18.206;2024-03-02T07:56:40;14.50;;;12.67;;
8683;SDS011;4379;59.744;18.206;2024-03-02T07:59:07;16.20;;;12.33;;
8683;SDS011;4379;59.744;18.206;2024-03-02T08:01:34;14.83;;;12.60;;
8683;SDS011;4379;59.744;18.206;2024-03-02T08:04:01;14.40;;;12.67;;
8683;SDS011;4379;59.744;18.206;2024-03-02T08:06:31;14.20;;;12.77;;
8683;SDS011;4379;59.744;18.206;2024-03-02T08:08:59;13.60;;;12.37;;
8683;SDS011;4379;59.744;18.206;2024-03-02T08:11:27;13.53;;;11.97;;
8683;SDS011;4379;59.744;18.206;2024-03-02T08:13:55;13.53;;;12.23;;
8683;SDS011;4379;59.744;18.206;2024-03-02T08:16:22;13.93;;;12.27;;
8683;SDS011;4379;59.744;18.206;2024-03-02T08:18:50;13.03;;;11.73;;
8683;SDS011;4379;59.744;18.206;2024-03-02T08:21:17;18.90;;;11.90;;
8683;SDS011;4379;59.744;18.206;2024-03-02T08:23:45;13.53;;;11.97;;
8683;SDS011;4379;59.744;18.206;2024-03-02T08:26:12;14.73;;;11.70;;
8683;SDS011;4379;59.744;18.206;2024-03-02T08:28:39;12.47;;;11.17;;
8683;SDS011;4379;59.744;18.206;2024-03-02T08:31:09;12.20;;;11.00;;
8683;SDS011;4379;59.744;18.206;2024-03-02T08:33:37;12.97;;;11.70;;
8683;SDS011;4379;59.744;18.206;2024-03-02T08:36:04;12.10;;;11.00;;
8683;SDS011;4379;59.744;18.206;2024-03-02T08:38:32;13.17;;;11.50;;
8683;SDS011;4379;59.744;18.206;2024-03-02T08:40:59;13.77;;;10.90;;
8683;SDS011;4379;59.744;18.206;2024-03-02T08:43:26;14.17;;;11.33;;
8683;SDS011;4379;59.744;18.206;2024-03-02T08:45:53;14.93;;;11.77;;
8683;SDS011;4379;59.744;18.206;2024-03-02T08:48:20;12.73;;;11.23;;
8683;SDS011;4379;59.744;18.206;2024-03-02T08:50:47;11.47;;;10.37;;
8683;SDS011;4379;59.744;18.206;2024-03-02T08:53:14;12.87;;;11.10;;
8683;SDS011;4379;59.744;18.206;2024-03-02T08:55:45;12.20;;;11.00;;
8683;SDS011;4379;59.744;18.206;2024-03-02T08:58:13;12.73;;;11.27;;
8683;SDS011;4379;59.744;18.206;2024-03-02T09:00:40;11.47;;;10.27;;
8683;SDS011;4379;59.744;18.206;2024-03-02T09:03:08;11.80;;;10.70;;
8683;SDS011;4379;59.744;18.206;2024-03-02T09:05:35;12.03;;;10.93;;
8683;SDS011;4379;59.744;18.206;2024-03-02T09:08:02;12.53;;;10.80;;
8683;SDS011;4379;59.744;18.206;2024-03-02T09:10:30;12.10;;;10.77;;
8683;SDS011;4379;59.744;18.206;2024-03-02T09:12:57;11.70;;;10.60;;
8683;SDS011;4379;59.744;18.206;2024-03-02T09:15:25;12.60;;;10.63;;
8683;SDS011;4379;59.744;18.206;2024-03-02T09:17:52;13.30;;;11.20;;
8683;SDS011;4379;59.744;18.206;2024-03-02T09:20:19;11.07;;;10.07;;
8683;SDS011;4379;59.744;18.206;2024-03-02T09:22:49;11.17;;;10.10;;
8683;SDS011;4379;59.744;18.206;2024-03-02T09:25:17;11.47;;;10.30;;
8683;SDS011;4379;59.744;18.206;2024-03-02T09:27:44;13.10;;;10.30;;
8683;SDS011;4379;59.744;18.206;2024-03-02T09:30:11;11.37;;;9.97;;
8683;SDS011;4379;59.744;18.206;2024-03-02T09:32:40;11.33;;;10.27;;
8683;SDS011;4379;59.744;18.206;2024-03-02T09:35:07;11.57;;;10.57;;
8683;SDS011;4379;59.744;18.206;2024-03-02T09:37:35;12.47;;;9.37;;
8683;SDS011;4379;59.744;18.206;2024-03-02T09:40:02;11.00;;;10.00;;
8683;SDS011;4379;59.744;18.206;2024-03-02T09:42:30;11.73;;;10.50;;
8683;SDS011;4379;59.744;18.206;2024-03-02T09:44:58;11.80;;;10.53;;
8683;SDS011;4379;59.744;18.206;2024-03-02T09:47:26;11.97;;;10.87;;
8683;SDS011;4379;59.744;18.206;2024-03-02T09:49:53;11.20;;;10.03;;
8683;SDS011;4379;59.744;18.206;2024-03-02T09:52:25;11.10;;;10.00;;
8683;SDS011;4379;59.744;18.206;2024-03-02T09:54:52;11.20;;;9.83;;
8683;SDS011;4379;59.744;18.206;2024-03-02T09:57:19;10.63;;;9.60;;
8683;SDS011;4379;59.744;18.206;2024-03-02T09:59:47;11.37;;;10.47;;
8683;SDS011;4379;59.744;18.206;2024-03-02T10:02:14;11.00;;;9.93;;
8683;SDS011;4379;59.744;18.206;2024-03-02T10:04:41;10.73;;;9.60;;
8683;SDS011;4379;59.744;18.206;2024-03-02T10:09:45;11.57;;;10.33;;
8683;SDS011;4379;59.744;18.206;2024-03-02T10:12:14;10.80;;;9.77;;
8683;SDS011;4379;59.744;18.206;2024-03-02T10:14:43;10.77;;;9.67;;
8683;SDS011;4379;59.744;18.206;2024-03-02T10:17:11;10.70;;;9.53;;
8683;SDS011;4379;59.744;18.206;2024-03-02T10:19:39;11.33;;;10.07;;
8683;SDS011;4379;59.744;18.206;2024-03-02T10:22:07;10.43;;;9.53;;
8683;SDS011;4379;59.744;18.206;2024-03-02T10:24:36;9.67;;;8.77;;
8683;SDS011;4379;59.744;18.206;2024-03-02T10:27:09;9.90;;;9.07;;
8683;SDS011;4379;59.744;18.206;2024-03-02T10:29:37;9.40;;;8.60;;
8683;SDS011;4379;59.744;18.206;2024-03-02T10:32:09;9.47;;;8.47;;
8683;SDS011;4379;59.744;18.206;2024-03-02T10:34:41;9.80;;;8.83;;
8683;SDS011;4379;59.744;18.206;2024-03-02T10:37:10;10.43;;;9.40;;
8683;SDS011;4379;59.744;18.206;2024-03-02T10:39:39;10.23;;;9.20;;
8683;SDS011;4379;59.744;18.206;2024-03-02T10:42:07;12.03;;;9.80;;
8683;SDS011;4379;59.744;18.206;2024-03-02T10:44:35;9.60;;;8.90;;
8683;SDS011;4379;59.744;18.206;2024-03-02T10:47:03;10.93;;;9.80;;
8683;SDS011;4379;59.744;18.206;2024-03-02T10:49:31;10.93;;;10.00;;
8683;SDS011;4379;59.744;18.206;2024-03-02T10:51:59;10.60;;;9.57;;
8683;SDS011;4379;59.744;18.206;2024-03-02T10:54:27;9.70;;;9.07;;
8683;SDS011;4379;59.744;18.206;2024-03-02T10:56:58;11.97;;;10.20;;
8683;SDS011;4379;59.744;18.206;2024-03-02T10:59:27;10.33;;;9.27;;
8683;SDS011;4379;59.744;18.206;2024-03-02T11:01:58;9.83;;;9.00;;
8683;SDS011;4379;59.744;18.206;2024-03-02T11:04:31;9.83;;;9.03;;
8683;SDS011;4379;59.744;18.206;2024-03-02T11:07:03;10.73;;;9.63;;
8683;SDS011;4379;59.744;18.206;2024-03-02T11:09:34;10.13;;;9.20;;
8683;SDS011;4379;59.744;18.206;2024-03-02T11:15:17;10.63;;;9.57;;
8683;SDS011;4379;59.744;18.206;2024-03-02T11:17:48;9.40;;;8.70;;
8683;SDS011;4379;59.744;18.206;2024-03-02T11:20:16;11.47;;;10.37;;
8683;SDS011;4379;59.744;18.206;2024-03-02T11:22:43;10.93;;;9.73;;
8683;SDS011;4379;59.744;18.206;2024-03-02T11:25:26;10.33;;;9.23;;
8683;SDS011;4379;59.744;18.206;2024-03-02T11:33:02;10.20;;;9.37;;
8683;SDS011;4379;59.744;18.206;2024-03-02T11:35:41;12.87;;;9.77;;
8683;SDS011;4379;59.744;18.206;2024-03-02T11:38:10;12.07;;;9.57;;
8683;SDS011;4379;59.744;18.206;2024-03-02T11:40:38;11.67;;;10.00;;
8683;SDS011;4379;59.744;18.206;2024-03-02T11:43:06;9.97;;;9.27;;
8683;SDS011;4379;59.744;18.206;2024-03-02T11:45:35;11.60;;;10.00;;
8683;SDS011;4379;59.744;18.206;2024-03-02T11:48:06;11.13;;;9.90;;
8683;SDS011;4379;59.744;18.206;2024-03-02T11:50:49;10.23;;;9.43;;
8683;SDS011;4379;59.744;18.206;2024-03-02T11:53:17;11.10;;;10.00;;
8683;SDS011;4379;59.744;18.206;2024-03-02T11:55:46;9.60;;;8.67;;
8683;SDS011;4379;59.744;18.206;2024-03-02T11:58:14;11.30;;;9.97;;
8683;SDS011;4379;59.744;18.206;2024-03-02T12:00:47;10.07;;;9.07;;
8683;SDS011;4379;59.744;18.206;2024-03-02T12:03:17;11.63;;;10.10;;
8683;SDS011;4379;59.744;18.206;2024-03-02T12:05:49;10.43;;;9.53;;
8683;SDS011;4379;59.744;18.206;2024-03-02T12:08:16;11.10;;;9.57;;
8683;SDS011;4379;59.744;18.206;2024-03-02T12:10:43;11.23;;;10.33;;
8683;SDS011;4379;59.744;18.206;2024-03-02T12:13:23;11.60;;;10.50;;
8683;SDS011;4379;59.744;18.206;2024-03-02T12:15:52;10.67;;;9.77;;
8683;SDS011;4379;59.744;18.206;2024-03-02T12:18:21;11.40;;;9.77;;
8683;SDS011;4379;59.744;18.206;2024-03-02T12:20:49;10.10;;;9.20;;
8683;SDS011;4379;59.744;18.206;2024-03-02T12:23:23;10.30;;;9.40;;
8683;SDS011;4379;59.744;18.206;2024-03-02T12:25:50;10.53;;;9.60;;
8683;SDS011;4379;59.744;18.206;2024-03-02T12:28:17;10.40;;;9.40;;
8683;SDS011;4379;59.744;18.206;2024-03-02T12:30:46;11.23;;;10.03;;
8683;SDS011;4379;59.744;18.206;2024-03-02T12:33:14;10.07;;;9.27;;
8683;SDS011;4379;59.744;18.206;2024-03-02T12:35:42;11.20;;;10.10;;
8683;SDS011;4379;59.744;18.206;2024-03-02T12:38:10;10.43;;;9.50;;
8683;SDS011;4379;59.744;18.206;2024-03-02T12:40:37;11.27;;;9.70;;
8683;SDS011;4379;59.744;18.206;2024-03-02T12:43:05;10.40;;;9.50;;
8683;SDS011;4379;59.744;18.206;2024-03-02T12:45:33;10.43;;;9.53;;
8683;SDS011;4379;59.744;18.206;2024-03-02T12:48:01;10.60;;;9.50;;
8683;SDS011;4379;59.744;18.206;2024-03-02T12:50:30;9.53;;;8.70;;
8683;SDS011;4379;59.744;18.206;2024-03-02T12:52:57;9.67;;;8.73;;
8683;SDS011;4379;59.744;18.206;2024-03-02T12:55:25;10.80;;;9.73;;
8683;SDS011;4379;59.744;18.206;2024-03-02T12:57:52;9.90;;;9.00;;
8683;SDS011;4379;59.744;18.206;2024-03-02T13:00:20;11.13;;;9.77;;
8683;SDS011;4379;59.744;18.206;2024-03-02T13:02:49;10.53;;;9.47;;
8683;SDS011;4379;59.744;18.206;2024-03-02T13:05:18;10.77;;;9.77;;
8683;SDS011;4379;59.744;18.206;2024-03-02T13:07:47;10.67;;;9.60;;
8683;SDS011;4379;59.744;18.206;2024-03-02T13:10:14;10.73;;;9.80;;
8683;SDS011;4379;59.744;18.206;2024-03-02T13:12:43;10.57;;;9.47;;
8683;SDS011;4379;59.744;18.206;2024-03-02T13:15:10;11.87;;;10.67;;
8683;SDS011;4379;59.744;18.206;2024-03-02T13:17:44;11.00;;;9.90;;
8683;SDS011;4379;59.744;18.206;2024-03-02T13:20:13;12.20;;;10.63;;
8683;SDS011;4379;59.744;18.206;2024-03-02T13:22:41;10.53;;;9.60;;
8683;SDS011;4379;59.744;18.206;2024-03-02T13:25:11;12.57;;;10.20;;
8683;SDS011;4379;59.744;18.206;2024-03-02T13:27:39;10.33;;;9.43;;
8683;SDS011;4379;59.744;18.206;2024-03-02T13:30:06;13.87;;;9.30;;
8683;SDS011;4379;59.744;18.206;2024-03-02T13:32:35;10.60;;;9.63;;
8683;SDS011;4379;59.744;18.206;2024-03-02T13:35:03;11.03;;;10.13;;
8683;SDS011;4379;59.744;18.206;2024-03-02T13:37:30;11.77;;;10.57;;
8683;SDS011;4379;59.744;18.206;2024-03-02T13:39:57;12.77;;;9.97;;
8683;SDS011;4379;59.744;18.206;2024-03-02T13:42:24;13.50;;;11.40;;
8683;SDS011;4379;59.744;18.206;2024-03-02T13:44:52;14.53;;;11.40;;
8683;SDS011;4379;59.744;18.206;2024-03-02T13:47:19;12.27;;;11.13;;
8683;SDS011;4379;59.744;18.206;2024-03-02T13:49:47;11.70;;;10.60;;
8683;SDS011;4379;59.744;18.206;2024-03-02T13:52:15;11.60;;;10.63;;
8683;SDS011;4379;59.744;18.206;2024-03-02T13:54:45;12.27;;;11.20;;
8683;SDS011;4379;59.744;18.206;2024-03-02T13:57:14;12.47;;;10.97;;
8683;SDS011;4379;59.744;18.206;2024-03-02T13:59:42;12.33;;;10.80;;
8683;SDS011;4379;59.744;18.206;2024-03-02T14:02:10;10.60;;;9.60;;
8683;SDS011;4379;59.744;18.206;2024-03-02T14:04:39;11.47;;;8.97;;
8683;SDS011;4379;59.744;18.206;2024-03-02T14:07:06;10.17;;;9.17;;
8683;SDS011;4379;59.744;18.206;2024-03-02T14:09:34;9.77;;;8.87;;
8683;SDS011;4379;59.744;18.206;2024-03-02T14:12:02;9.20;;;8.40;;
8683;SDS011;4379;59.744;18.206;2024-03-02T14:14:30;9.70;;;8.97;;
8683;SDS011;4379;59.744;18.206;2024-03-02T14:16:57;10.70;;;9.43;;
8683;SDS011;4379;59.744;18.206;2024-03-02T14:19:32;9.80;;;8.80;;
8683;SDS011;4379;59.744;18.206;2024-03-02T14:21:59;9.67;;;8.80;;
8683;SDS011;4379;59.744;18.206;2024-03-02T14:24:26;11.70;;;9.23;;
8683;SDS011;4379;59.744;18.206;2024-03-02T14:26:56;10.33;;;9.23;;
8683;SDS011;4379;59.744;18.206;2024-03-02T14:29:35;11.10;;;9.07;;
8683;SDS011;4379;59.744;18.206;2024-03-02T14:32:04;9.30;;;8.33;;
8683;SDS011;4379;59.744;18.206;2024-03-02T14:34:32;10.00;;;9.03;;
8683;SDS011;4379;59.744;18.206;2024-03-02T14:37:01;10.77;;;8.70;;
8683;SDS011;4379;59.744;18.206;2024-03-02T14:39:29;9.63;;;8.83;;
8683;SDS011;4379;59.744;18.206;2024-03-02T14:42:01;11.00;;;8.47;;
8683;SDS011;4379;59.744;18.206;2024-03-02T14:44:28;9.70;;;8.77;;
8683;SDS011;4379;59.744;18.206;2024-03-02T14:46:55;10.17;;;9.03;;
8683;SDS011;4379;59.744;18.206;2024-03-02T14:49:25;9.57;;;8.57;;
8683;SDS011;4379;59.744;18.206;2024-03-02T14:51:52;10.20;;;9.30;;
8683;SDS011;4379;59.744;18.206;2024-03-02T14:54:19;9.67;;;8.67;;
8683;SDS011;4379;59.744;18.206;2024-03-02T14:56:48;12.17;;;8.37;;
8683;SDS011;4379;59.744;18.206;2024-03-02T14:59:15;9.33;;;8.30;;
8683;SDS011;4379;59.744;18.206;2024-03-02T15:01:43;9.23;;;8.50;;